sensor_id;sensor_type;location;lat;lon;timestamp;P1;durP1;ratioP1;P2;durP2;ratioP2
33912;SDS011;20200;52.084;5.224;2023-01-23T00:02:02;30.5;;;22.2;;
33912;SDS011;20200;52.084;5.224;2023-01-23T00:03:40;35.21;;;23.1;;
33912;SDS011;20200;52.084;5.224;2023-01-23T00:05:17;30.9;;;21.1;;
33912;SDS011;20200;52.084;5.224;2023-01-23T00:06:54;28.2;;;18.91;;
33912;SDS011;20200;52.084;5.224;2023-01-23T00:10:10;27.2;;;20.9;;
33912;SDS011;20200;52.084;5.224;2023-01-23T00:11:46;28.3;;;21.9;;
33912;SDS011;20200;52.084;5.224;2023-01-23T00:13:24;30.6;;;22.1;;
33912;SDS011;20200;52.084;5.224;2023-01-23T00:16:38;33.71;;;23.6;;
33912;SDS011;20200;52.084;5.224;2023-01-23T00:18:14;31.6;;;22.0;;
33912;SDS011;20200;52.084;5.224;2023-01-23T00:19:51;31.4;;;20.5;;
33912;SDS011;20200;52.084;5.224;2023-01-23T00:23:06;28.1;;;20.0;;
33912;SDS011;20200;52.084;5.224;2023-01-23T00:24:43;32.9;;;21.1;;
33912;SDS011;20200;52.084;5.224;2023-01-23T00:26:21;30.2;;;21.0;;
33912;SDS011;20200;52.084;5.224;2023-01-23T00:28:00;31.8;;;22.5;;
33912;SDS011;20200;52.084;5.224;2023-01-23T00:31:15;33.6;;;23.2;;
33912;SDS011;20200;52.084;5.224;2023-01-23T00:32:54;29.8;;;21.3;;
33912;SDS011;20200;52.084;5.224;2023-01-23T00:34:31;34.0;;;24.5;;
33912;SDS011;20200;52.084;5.224;2023-01-23T00:37:46;28.2;;;22.2;;
33912;SDS011;20200;52.084;5.224;2023-01-23T00:39:23;28.8;;;21.3;;
33912;SDS011;20200;52.084;5.224;2023-01-23T00:41:01;34.21;;;22.9;;
33912;SDS011;20200;52.084;5.224;2023-01-23T00:42:39;31.2;;;21.5;;
33912;SDS011;20200;52.084;5.224;2023-01-23T00:45:52;29.4;;;21.7;;
33912;SDS011;20200;52.084;5.224;2023-01-23T00:47:29;29.4;;;20.11;;
33912;SDS011;20200;52.084;5.224;2023-01-23T00:49:06;31.4;;;22.6;;
33912;SDS011;20200;52.084;5.224;2023-01-23T00:52:21;31.5;;;22.6;;
33912;SDS011;20200;52.084;5.224;2023-01-23T00:53:58;37.4;;;24.5;;
33912;SDS011;20200;52.084;5.224;2023-01-23T00:55:36;34.31;;;23.6;;
33912;SDS011;20200;52.084;5.224;2023-01-23T00:57:13;32.6;;;22.2;;
33912;SDS011;20200;52.084;5.224;2023-01-23T01:00:27;34.0;;;24.1;;
33912;SDS011;20200;52.084;5.224;2023-01-23T01:02:04;34.81;;;22.4;;
33912;SDS011;20200;52.084;5.224;2023-01-23T01:03:41;39.81;;;25.9;;
33912;SDS011;20200;52.084;5.224;2023-01-23T01:06:56;31.1;;;22.3;;
33912;SDS011;20200;52.084;5.224;2023-01-23T01:08:34;40.9;;;26.2;;
33912;SDS011;20200;52.084;5.224;2023-01-23T01:10:11;43.3;;;27.6;;
33912;SDS011;20200;52.084;5.224;2023-01-23T01:11:49;34.6;;;27.0;;
33912;SDS011;20200;52.084;5.224;2023-01-23T01:15:05;36.21;;;24.7;;
33912;SDS011;20200;52.084;5.224;2023-01-23T01:16:45;29.7;;;21.2;;
33912;SDS011;20200;52.084;5.224;2023-01-23T01:18:23;34.31;;;25.8;;
33912;SDS011;20200;52.084;5.224;2023-01-23T01:21:39;34.31;;;26.7;;
33912;SDS011;20200;52.084;5.224;2023-01-23T01:23:17;35.71;;;25.8;;
33912;SDS011;20200;52.084;5.224;2023-01-23T01:24:54;33.6;;;24.6;;
33912;SDS011;20200;52.084;5.224;2023-01-23T01:26:33;33.8;;;24.7;;
33912;SDS011;20200;52.084;5.224;2023-01-23T01:29:47;35.5;;;26.1;;
33912;SDS011;20200;52.084;5.224;2023-01-23T01:31:24;35.31;;;23.2;;
33912;SDS011;20200;52.084;5.224;2023-01-23T01:33:02;33.4;;;21.4;;
33912;SDS011;20200;52.084;5.224;2023-01-23T01:36:16;34.5;;;23.5;;
33912;SDS011;20200;52.084;5.224;2023-01-23T01:37:55;33.3;;;23.0;;
33912;SDS011;20200;52.084;5.224;2023-01-23T01:39:32;33.71;;;24.3;;
33912;SDS011;20200;52.084;5.224;2023-01-23T01:41:11;33.1;;;25.0;;
33912;SDS011;20200;52.084;5.224;2023-01-23T01:44:53;33.0;;;22.5;;
33912;SDS011;20200;52.084;5.224;2023-01-23T01:46:32;32.3;;;22.5;;
33912;SDS011;20200;52.084;5.224;2023-01-23T01:48:08;32.71;;;22.6;;
33912;SDS011;20200;52.084;5.224;2023-01-23T01:49:45;38.5;;;24.4;;
33912;SDS011;20200;52.084;5.224;2023-01-23T01:53:07;35.4;;;25.9;;
33912;SDS011;20200;52.084;5.224;2023-01-23T01:54:46;35.0;;;23.7;;
33912;SDS011;20200;52.084;5.224;2023-01-23T01:56:29;37.1;;;26.0;;
33912;SDS011;20200;52.084;5.224;2023-01-23T01:58:13;37.1;;;26.0;;
33912;SDS011;20200;52.084;5.224;2023-01-23T02:01:31;35.6;;;24.7;;
33912;SDS011;20200;52.084;5.224;2023-01-23T02:03:10;40.81;;;28.9;;
33912;SDS011;20200;52.084;5.224;2023-01-23T02:04:47;38.9;;;28.1;;
33912;SDS011;20200;52.084;5.224;2023-01-23T02:06:27;35.21;;;25.7;;
33912;SDS011;20200;52.084;5.224;2023-01-23T02:09:48;36.31;;;25.6;;
33912;SDS011;20200;52.084;5.224;2023-01-23T02:11:26;37.1;;;25.7;;
33912;SDS011;20200;52.084;5.224;2023-01-23T02:13:17;33.5;;;24.2;;
33912;SDS011;20200;52.084;5.224;2023-01-23T02:15:02;34.71;;;24.3;;
33912;SDS011;20200;52.084;5.224;2023-01-23T02:16:45;40.21;;;27.9;;
33912;SDS011;20200;52.084;5.224;2023-01-23T02:20:02;40.71;;;27.8;;
33912;SDS011;20200;52.084;5.224;2023-01-23T02:21:47;37.1;;;24.9;;
33912;SDS011;20200;52.084;5.224;2023-01-23T02:23:37;35.31;;;27.1;;
33912;SDS011;20200;52.084;5.224;2023-01-23T02:25:27;43.9;;;30.4;;
33912;SDS011;20200;52.084;5.224;2023-01-23T02:27:13;36.6;;;24.9;;
33912;SDS011;20200;52.084;5.224;2023-01-23T02:30:27;41.8;;;27.9;;
33912;SDS011;20200;52.084;5.224;2023-01-23T02:32:04;32.5;;;24.3;;
33912;SDS011;20200;52.084;5.224;2023-01-23T02:33:43;32.71;;;23.4;;
33912;SDS011;20200;52.084;5.224;2023-01-23T02:37:06;35.5;;;23.9;;
33912;SDS011;20200;52.084;5.224;2023-01-23T02:38:47;40.4;;;28.6;;
33912;SDS011;20200;52.084;5.224;2023-01-23T02:40:39;40.4;;;28.6;;
33912;SDS011;20200;52.084;5.224;2023-01-23T02:42:17;40.21;;;26.6;;
33912;SDS011;20200;52.084;5.224;2023-01-23T02:43:57;39.6;;;28.6;;
33912;SDS011;20200;52.084;5.224;2023-01-23T02:47:15;45.0;;;31.2;;
33912;SDS011;20200;52.084;5.224;2023-01-23T02:48:52;43.3;;;30.7;;
33912;SDS011;20200;52.084;5.224;2023-01-23T02:50:29;44.6;;;29.8;;
33912;SDS011;20200;52.084;5.224;2023-01-23T02:53:44;37.21;;;26.7;;
33912;SDS011;20200;52.084;5.224;2023-01-23T02:55:21;43.7;;;29.6;;
33912;SDS011;20200;52.084;5.224;2023-01-23T02:56:58;41.5;;;29.0;;
33912;SDS011;20200;52.084;5.224;2023-01-23T03:00:24;42.4;;;29.9;;
33912;SDS011;20200;52.084;5.224;2023-01-23T03:02:07;37.71;;;27.4;;
33912;SDS011;20200;52.084;5.224;2023-01-23T03:03:44;42.3;;;28.3;;
33912;SDS011;20200;52.084;5.224;2023-01-23T03:05:21;42.9;;;31.9;;
33912;SDS011;20200;52.084;5.224;2023-01-23T03:06:58;39.9;;;27.5;;
33912;SDS011;20200;52.084;5.224;2023-01-23T03:10:23;41.6;;;28.2;;
33912;SDS011;20200;52.084;5.224;2023-01-23T03:11:59;42.8;;;30.5;;
33912;SDS011;20200;52.084;5.224;2023-01-23T03:13:36;41.9;;;28.8;;
33912;SDS011;20200;52.084;5.224;2023-01-23T03:15:13;41.0;;;28.7;;
33912;SDS011;20200;52.084;5.224;2023-01-23T03:18:30;45.0;;;30.3;;
33912;SDS011;20200;52.084;5.224;2023-01-23T03:20:06;49.2;;;30.6;;
33912;SDS011;20200;52.084;5.224;2023-01-23T03:21:45;36.31;;;26.8;;
33912;SDS011;20200;52.084;5.224;2023-01-23T03:25:00;39.5;;;28.0;;
33912;SDS011;20200;52.084;5.224;2023-01-23T03:26:37;44.9;;;31.8;;
33912;SDS011;20200;52.084;5.224;2023-01-23T03:30:12;48.3;;;32.3;;
33912;SDS011;20200;52.084;5.224;2023-01-23T03:31:50;37.4;;;27.0;;
33912;SDS011;20200;52.084;5.224;2023-01-23T03:33:27;43.9;;;28.3;;
33912;SDS011;20200;52.084;5.224;2023-01-23T03:35:06;43.7;;;29.6;;
33912;SDS011;20200;52.084;5.224;2023-01-23T03:36:44;44.3;;;30.6;;
33912;SDS011;20200;52.084;5.224;2023-01-23T03:38:22;41.1;;;29.6;;
33912;SDS011;20200;52.084;5.224;2023-01-23T03:43:07;46.9;;;32.9;;
33912;SDS011;20200;52.084;5.224;2023-01-23T03:44:44;43.7;;;31.4;;
33912;SDS011;20200;52.084;5.224;2023-01-23T03:47:58;45.3;;;31.1;;
33912;SDS011;20200;52.084;5.224;2023-01-23T03:49:35;38.31;;;28.4;;
33912;SDS011;20200;52.084;5.224;2023-01-23T03:51:12;41.9;;;29.8;;
33912;SDS011;20200;52.084;5.224;2023-01-23T03:52:49;40.5;;;28.2;;
33912;SDS011;20200;52.084;5.224;2023-01-23T03:56:02;41.6;;;28.7;;
33912;SDS011;20200;52.084;5.224;2023-01-23T03:57:39;37.9;;;26.7;;
33912;SDS011;20200;52.084;5.224;2023-01-23T03:59:16;39.0;;;27.7;;
33912;SDS011;20200;52.084;5.224;2023-01-23T04:02:29;43.8;;;32.21;;
33912;SDS011;20200;52.084;5.224;2023-01-23T04:04:05;48.5;;;30.9;;
33912;SDS011;20200;52.084;5.224;2023-01-23T04:05:42;42.4;;;29.2;;
33912;SDS011;20200;52.084;5.224;2023-01-23T04:08:57;40.21;;;27.3;;
33912;SDS011;20200;52.084;5.224;2023-01-23T04:10:35;38.1;;;28.0;;
33912;SDS011;20200;52.084;5.224;2023-01-23T04:12:12;46.4;;;31.3;;
33912;SDS011;20200;52.084;5.224;2023-01-23T04:13:49;42.8;;;29.2;;
33912;SDS011;20200;52.084;5.224;2023-01-23T04:17:01;41.0;;;27.5;;
33912;SDS011;20200;52.084;5.224;2023-01-23T04:18:38;39.4;;;27.9;;
33912;SDS011;20200;52.084;5.224;2023-01-23T04:20:16;44.9;;;29.1;;
33912;SDS011;20200;52.084;5.224;2023-01-23T04:23:28;37.4;;;27.0;;
33912;SDS011;20200;52.084;5.224;2023-01-23T04:25:04;36.5;;;26.8;;
33912;SDS011;20200;52.084;5.224;2023-01-23T04:26:41;39.81;;;29.3;;
33912;SDS011;20200;52.084;5.224;2023-01-23T04:29:54;47.2;;;31.3;;
33912;SDS011;20200;52.084;5.224;2023-01-23T04:31:32;39.0;;;24.3;;
33912;SDS011;20200;52.084;5.224;2023-01-23T04:33:09;40.31;;;27.5;;
33912;SDS011;20200;52.084;5.224;2023-01-23T04:34:45;39.0;;;27.2;;
33912;SDS011;20200;52.084;5.224;2023-01-23T04:37:57;40.71;;;31.3;;
33912;SDS011;20200;52.084;5.224;2023-01-23T04:39:33;40.9;;;29.1;;
33912;SDS011;20200;52.084;5.224;2023-01-23T04:41:11;42.1;;;29.0;;
33912;SDS011;20200;52.084;5.224;2023-01-23T04:44:30;44.3;;;29.6;;
33912;SDS011;20200;52.084;5.224;2023-01-23T04:46:06;41.7;;;29.8;;
33912;SDS011;20200;52.084;5.224;2023-01-23T04:47:43;57.0;;;34.6;;
33912;SDS011;20200;52.084;5.224;2023-01-23T04:49:19;45.0;;;29.9;;
33912;SDS011;20200;52.084;5.224;2023-01-23T04:52:33;48.3;;;34.0;;
33912;SDS011;20200;52.084;5.224;2023-01-23T04:54:10;45.7;;;32.5;;
33912;SDS011;20200;52.084;5.224;2023-01-23T04:55:48;43.6;;;31.7;;
33912;SDS011;20200;52.084;5.224;2023-01-23T04:59:01;42.8;;;30.8;;
33912;SDS011;20200;52.084;5.224;2023-01-23T05:00:38;52.4;;;35.5;;
33912;SDS011;20200;52.084;5.224;2023-01-23T05:02:14;42.7;;;32.1;;
33912;SDS011;20200;52.084;5.224;2023-01-23T05:05:28;41.3;;;28.9;;
33912;SDS011;20200;52.084;5.224;2023-01-23T05:07:04;52.7;;;35.4;;
33912;SDS011;20200;52.084;5.224;2023-01-23T05:08:41;46.5;;;33.0;;
33912;SDS011;20200;52.084;5.224;2023-01-23T05:10:17;42.3;;;31.3;;
33912;SDS011;20200;52.084;5.224;2023-01-23T05:13:31;50.2;;;32.4;;
33912;SDS011;20200;52.084;5.224;2023-01-23T05:15:07;47.8;;;32.21;;
33912;SDS011;20200;52.084;5.224;2023-01-23T05:16:45;40.81;;;29.6;;
33912;SDS011;20200;52.084;5.224;2023-01-23T05:19:57;46.3;;;32.6;;
33912;SDS011;20200;52.084;5.224;2023-01-23T05:21:33;52.1;;;33.8;;
33912;SDS011;20200;52.084;5.224;2023-01-23T05:23:10;44.9;;;30.1;;
33912;SDS011;20200;52.084;5.224;2023-01-23T05:26:22;44.0;;;29.8;;
33912;SDS011;20200;52.084;5.224;2023-01-23T05:27:58;40.81;;;29.4;;
33912;SDS011;20200;52.084;5.224;2023-01-23T05:29:35;42.5;;;30.8;;
33912;SDS011;20200;52.084;5.224;2023-01-23T05:31:11;51.7;;;32.3;;
33912;SDS011;20200;52.084;5.224;2023-01-23T05:34:25;46.7;;;33.4;;
33912;SDS011;20200;52.084;5.224;2023-01-23T05:36:01;45.2;;;31.6;;
33912;SDS011;20200;52.084;5.224;2023-01-23T05:37:38;56.8;;;34.81;;
33912;SDS011;20200;52.084;5.224;2023-01-23T05:40:50;53.4;;;34.21;;
33912;SDS011;20200;52.084;5.224;2023-01-23T05:42:26;51.2;;;34.81;;
33912;SDS011;20200;52.084;5.224;2023-01-23T05:44:02;45.3;;;32.0;;
33912;SDS011;20200;52.084;5.224;2023-01-23T05:47:15;49.6;;;34.6;;
33912;SDS011;20200;52.084;5.224;2023-01-23T05:48:51;46.3;;;32.21;;
33912;SDS011;20200;52.084;5.224;2023-01-23T05:50:28;48.8;;;33.3;;
33912;SDS011;20200;52.084;5.224;2023-01-23T05:52:04;48.4;;;33.0;;
33912;SDS011;20200;52.084;5.224;2023-01-23T05:55:17;44.3;;;31.8;;
33912;SDS011;20200;52.084;5.224;2023-01-23T05:56:53;46.2;;;33.71;;
33912;SDS011;20200;52.084;5.224;2023-01-23T05:58:29;56.2;;;38.4;;
33912;SDS011;20200;52.084;5.224;2023-01-23T06:01:47;58.3;;;38.0;;
33912;SDS011;20200;52.084;5.224;2023-01-23T06:03:23;53.0;;;38.21;;
33912;SDS011;20200;52.084;5.224;2023-01-23T06:04:59;45.3;;;32.5;;
33912;SDS011;20200;52.084;5.224;2023-01-23T06:08:11;42.5;;;33.3;;
33912;SDS011;20200;52.084;5.224;2023-01-23T06:09:47;49.9;;;34.21;;
33912;SDS011;20200;52.084;5.224;2023-01-23T06:11:23;57.3;;;39.5;;
33912;SDS011;20200;52.084;5.224;2023-01-23T06:12:59;55.4;;;38.81;;
33912;SDS011;20200;52.084;5.224;2023-01-23T06:16:13;56.7;;;38.31;;
33912;SDS011;20200;52.084;5.224;2023-01-23T06:17:49;46.2;;;33.71;;
33912;SDS011;20200;52.084;5.224;2023-01-23T06:19:25;48.6;;;35.0;;
33912;SDS011;20200;52.084;5.224;2023-01-23T06:22:38;50.5;;;34.81;;
33912;SDS011;20200;52.084;5.224;2023-01-23T06:24:14;45.5;;;32.8;;
33912;SDS011;20200;52.084;5.224;2023-01-23T06:25:50;43.5;;;31.7;;
33912;SDS011;20200;52.084;5.224;2023-01-23T06:29:03;38.1;;;29.6;;
33912;SDS011;20200;52.084;5.224;2023-01-23T06:30:40;45.9;;;32.6;;
33912;SDS011;20200;52.084;5.224;2023-01-23T06:32:17;40.1;;;29.3;;
33912;SDS011;20200;52.084;5.224;2023-01-23T06:35:29;46.1;;;33.21;;
33912;SDS011;20200;52.084;5.224;2023-01-23T06:37:05;48.0;;;32.9;;
33912;SDS011;20200;52.084;5.224;2023-01-23T06:38:42;49.5;;;35.6;;
33912;SDS011;20200;52.084;5.224;2023-01-23T06:40:18;50.4;;;34.21;;
33912;SDS011;20200;52.084;5.224;2023-01-23T06:43:30;48.4;;;33.8;;
33912;SDS011;20200;52.084;5.224;2023-01-23T06:45:07;51.4;;;33.71;;
33912;SDS011;20200;52.084;5.224;2023-01-23T06:46:44;50.6;;;34.21;;
33912;SDS011;20200;52.084;5.224;2023-01-23T06:49:58;46.6;;;35.9;;
33912;SDS011;20200;52.084;5.224;2023-01-23T06:51:35;46.9;;;34.4;;
33912;SDS011;20200;52.084;5.224;2023-01-23T06:53:12;47.6;;;35.9;;
33912;SDS011;20200;52.084;5.224;2023-01-23T06:54:50;54.6;;;38.21;;
33912;SDS011;20200;52.084;5.224;2023-01-23T06:58:03;54.0;;;38.71;;
33912;SDS011;20200;52.084;5.224;2023-01-23T06:59:39;46.1;;;34.21;;
33912;SDS011;20200;52.084;5.224;2023-01-23T07:04:29;54.7;;;41.0;;
33912;SDS011;20200;52.084;5.224;2023-01-23T07:06:06;48.4;;;36.81;;
33912;SDS011;20200;52.084;5.224;2023-01-23T07:07:42;53.9;;;40.31;;
33912;SDS011;20200;52.084;5.224;2023-01-23T07:10:55;54.3;;;39.0;;
33912;SDS011;20200;52.084;5.224;2023-01-23T07:12:31;52.8;;;39.21;;
33912;SDS011;20200;52.084;5.224;2023-01-23T07:14:07;57.2;;;40.1;;
33912;SDS011;20200;52.084;5.224;2023-01-23T07:17:21;57.5;;;38.9;;
33912;SDS011;20200;52.084;5.224;2023-01-23T07:18:58;48.7;;;36.6;;
33912;SDS011;20200;52.084;5.224;2023-01-23T07:20:34;48.5;;;36.31;;
33912;SDS011;20200;52.084;5.224;2023-01-23T07:22:10;60.3;;;40.71;;
33912;SDS011;20200;52.084;5.224;2023-01-23T07:25:23;62.3;;;43.7;;
33912;SDS011;20200;52.084;5.224;2023-01-23T07:27:01;63.1;;;43.8;;
33912;SDS011;20200;52.084;5.224;2023-01-23T07:28:37;52.6;;;37.5;;
33912;SDS011;20200;52.084;5.224;2023-01-23T07:33:27;53.2;;;39.21;;
33912;SDS011;20200;52.084;5.224;2023-01-23T07:35:03;53.8;;;38.81;;
33912;SDS011;20200;52.084;5.224;2023-01-23T07:36:40;51.3;;;39.31;;
33912;SDS011;20200;52.084;5.224;2023-01-23T07:39:53;68.5;;;46.2;;
33912;SDS011;20200;52.084;5.224;2023-01-23T07:41:29;57.2;;;40.0;;
33912;SDS011;20200;52.084;5.224;2023-01-23T07:43:05;52.7;;;38.71;;
33912;SDS011;20200;52.084;5.224;2023-01-23T07:46:17;54.4;;;38.6;;
33912;SDS011;20200;52.084;5.224;2023-01-23T07:47:53;53.7;;;36.9;;
33912;SDS011;20200;52.084;5.224;2023-01-23T07:49:29;52.5;;;37.6;;
33912;SDS011;20200;52.084;5.224;2023-01-23T07:52:42;44.0;;;31.7;;
33912;SDS011;20200;52.084;5.224;2023-01-23T07:54:18;44.0;;;31.7;;
33912;SDS011;20200;52.084;5.224;2023-01-23T07:55:55;45.5;;;32.21;;
33912;SDS011;20200;52.084;5.224;2023-01-23T07:59:09;44.2;;;33.9;;
33912;SDS011;20200;52.084;5.224;2023-01-23T08:00:49;51.1;;;40.1;;
33912;SDS011;20200;52.084;5.224;2023-01-23T08:02:25;53.3;;;39.71;;
33912;SDS011;20200;52.084;5.224;2023-01-23T08:04:01;49.1;;;37.21;;
33912;SDS011;20200;52.084;5.224;2023-01-23T08:07:13;44.9;;;36.21;;
33912;SDS011;20200;52.084;5.224;2023-01-23T08:08:50;53.8;;;37.9;;
33912;SDS011;20200;52.084;5.224;2023-01-23T08:10:27;55.5;;;41.3;;
33912;SDS011;20200;52.084;5.224;2023-01-23T08:13:40;59.1;;;42.5;;
33912;SDS011;20200;52.084;5.224;2023-01-23T08:15:17;51.3;;;40.0;;
33912;SDS011;20200;52.084;5.224;2023-01-23T08:16:54;50.1;;;36.9;;
33912;SDS011;20200;52.084;5.224;2023-01-23T08:18:30;56.9;;;43.2;;
33912;SDS011;20200;52.084;5.224;2023-01-23T08:21:46;63.5;;;45.1;;
33912;SDS011;20200;52.084;5.224;2023-01-23T08:23:23;61.9;;;44.0;;
33912;SDS011;20200;52.084;5.224;2023-01-23T08:25:00;51.0;;;37.31;;
33912;SDS011;20200;52.084;5.224;2023-01-23T08:28:13;46.5;;;37.0;;
33912;SDS011;20200;52.084;5.224;2023-01-23T08:29:49;57.9;;;39.5;;
33912;SDS011;20200;52.084;5.224;2023-01-23T08:31:26;51.9;;;39.31;;
33912;SDS011;20200;52.084;5.224;2023-01-23T08:34:39;49.7;;;38.6;;
33912;SDS011;20200;52.084;5.224;2023-01-23T08:36:15;56.3;;;41.8;;
33912;SDS011;20200;52.084;5.224;2023-01-23T08:37:51;56.1;;;40.31;;
33912;SDS011;20200;52.084;5.224;2023-01-23T08:39:27;63.5;;;44.6;;
33912;SDS011;20200;52.084;5.224;2023-01-23T08:42:41;61.5;;;43.0;;
33912;SDS011;20200;52.084;5.224;2023-01-23T08:44:17;56.9;;;42.3;;
33912;SDS011;20200;52.084;5.224;2023-01-23T08:45:54;59.4;;;44.1;;
33912;SDS011;20200;52.084;5.224;2023-01-23T08:49:11;63.0;;;45.2;;
33912;SDS011;20200;52.084;5.224;2023-01-23T08:50:48;55.9;;;40.0;;
33912;SDS011;20200;52.084;5.224;2023-01-23T08:52:27;52.1;;;40.9;;
33912;SDS011;20200;52.084;5.224;2023-01-23T08:55:40;56.2;;;41.4;;
33912;SDS011;20200;52.084;5.224;2023-01-23T08:57:17;65.1;;;45.9;;
33912;SDS011;20200;52.084;5.224;2023-01-23T08:58:53;48.4;;;39.31;;
33912;SDS011;20200;52.084;5.224;2023-01-23T09:00:29;50.4;;;38.81;;
33912;SDS011;20200;52.084;5.224;2023-01-23T09:03:41;50.6;;;40.5;;
33912;SDS011;20200;52.084;5.224;2023-01-23T09:05:19;58.6;;;46.0;;
33912;SDS011;20200;52.084;5.224;2023-01-23T09:06:56;62.2;;;45.0;;
33912;SDS011;20200;52.084;5.224;2023-01-23T09:10:09;61.6;;;45.9;;
33912;SDS011;20200;52.084;5.224;2023-01-23T09:11:46;55.6;;;45.1;;
33912;SDS011;20200;52.084;5.224;2023-01-23T09:13:22;60.3;;;45.1;;
33912;SDS011;20200;52.084;5.224;2023-01-23T09:16:34;52.4;;;40.9;;
33912;SDS011;20200;52.084;5.224;2023-01-23T09:18:11;54.9;;;39.31;;
33912;SDS011;20200;52.084;5.224;2023-01-23T09:19:47;56.9;;;43.1;;
33912;SDS011;20200;52.084;5.224;2023-01-23T09:21:23;58.9;;;44.4;;
33912;SDS011;20200;52.084;5.224;2023-01-23T09:24:35;52.8;;;42.7;;
33912;SDS011;20200;52.084;5.224;2023-01-23T09:26:12;59.1;;;44.7;;
33912;SDS011;20200;52.084;5.224;2023-01-23T09:27:50;57.4;;;44.5;;
33912;SDS011;20200;52.084;5.224;2023-01-23T09:31:03;51.1;;;39.81;;
33912;SDS011;20200;52.084;5.224;2023-01-23T09:32:41;59.3;;;44.2;;
33912;SDS011;20200;52.084;5.224;2023-01-23T09:34:17;58.3;;;44.6;;
33912;SDS011;20200;52.084;5.224;2023-01-23T09:37:58;43.8;;;37.9;;
33912;SDS011;20200;52.084;5.224;2023-01-23T09:39:35;51.9;;;41.8;;
33912;SDS011;20200;52.084;5.224;2023-01-23T09:41:13;50.5;;;41.7;;
33912;SDS011;20200;52.084;5.224;2023-01-23T09:42:53;47.9;;;39.21;;
33912;SDS011;20200;52.084;5.224;2023-01-23T09:44:34;52.2;;;42.0;;
33912;SDS011;20200;52.084;5.224;2023-01-23T09:48:01;48.5;;;39.5;;
33912;SDS011;20200;52.084;5.224;2023-01-23T09:49:53;46.9;;;39.1;;
33912;SDS011;20200;52.084;5.224;2023-01-23T09:51:40;48.5;;;39.4;;
33912;SDS011;20200;52.084;5.224;2023-01-23T09:53:26;48.0;;;40.1;;
33912;SDS011;20200;52.084;5.224;2023-01-23T09:55:12;55.0;;;42.3;;
33912;SDS011;20200;52.084;5.224;2023-01-23T09:56:54;47.4;;;40.1;;
33912;SDS011;20200;52.084;5.224;2023-01-23T10:00:16;50.5;;;42.7;;
33912;SDS011;20200;52.084;5.224;2023-01-23T10:01:58;48.1;;;38.9;;
33912;SDS011;20200;52.084;5.224;2023-01-23T10:03:34;53.0;;;43.3;;
33912;SDS011;20200;52.084;5.224;2023-01-23T10:05:13;50.9;;;41.1;;
33912;SDS011;20200;52.084;5.224;2023-01-23T10:09:07;47.8;;;39.71;;
33912;SDS011;20200;52.084;5.224;2023-01-23T10:11:05;45.2;;;37.71;;
33912;SDS011;20200;52.084;5.224;2023-01-23T10:12:52;45.4;;;38.21;;
33912;SDS011;20200;52.084;5.224;2023-01-23T10:14:50;47.4;;;39.4;;
33912;SDS011;20200;52.084;5.224;2023-01-23T10:16:49;47.7;;;40.1;;
33912;SDS011;20200;52.084;5.224;2023-01-23T10:18:39;46.7;;;40.5;;
33912;SDS011;20200;52.084;5.224;2023-01-23T10:20:39;50.7;;;40.9;;
33912;SDS011;20200;52.084;5.224;2023-01-23T10:22:49;52.8;;;41.7;;
33912;SDS011;20200;52.084;5.224;2023-01-23T10:24:42;50.0;;;41.7;;
33912;SDS011;20200;52.084;5.224;2023-01-23T10:26:25;44.8;;;36.9;;
33912;SDS011;20200;52.084;5.224;2023-01-23T10:29:59;46.2;;;38.1;;
33912;SDS011;20200;52.084;5.224;2023-01-23T10:31:49;46.6;;;39.71;;
33912;SDS011;20200;52.084;5.224;2023-01-23T10:33:32;47.5;;;40.81;;
33912;SDS011;20200;52.084;5.224;2023-01-23T10:35:16;44.3;;;39.4;;
33912;SDS011;20200;52.084;5.224;2023-01-23T10:36:59;46.3;;;39.4;;
33912;SDS011;20200;52.084;5.224;2023-01-23T10:38:48;44.8;;;37.4;;
33912;SDS011;20200;52.084;5.224;2023-01-23T10:43:15;46.0;;;39.4;;
33912;SDS011;20200;52.084;5.224;2023-01-23T10:46:32;42.3;;;35.1;;
33912;SDS011;20200;52.084;5.224;2023-01-23T10:48:37;44.6;;;37.81;;
33912;SDS011;20200;52.084;5.224;2023-01-23T10:50:18;46.9;;;39.21;;
33912;SDS011;20200;52.084;5.224;2023-01-23T10:52:27;46.9;;;39.21;;
33912;SDS011;20200;52.084;5.224;2023-01-23T10:54:12;42.4;;;36.9;;
33912;SDS011;20200;52.084;5.224;2023-01-23T10:55:56;42.5;;;36.0;;
33912;SDS011;20200;52.084;5.224;2023-01-23T10:57:36;45.5;;;38.21;;
33912;SDS011;20200;52.084;5.224;2023-01-23T11:01:05;42.3;;;37.5;;
33912;SDS011;20200;52.084;5.224;2023-01-23T11:03:04;46.5;;;38.81;;
33912;SDS011;20200;52.084;5.224;2023-01-23T11:05:03;44.4;;;37.71;;
33912;SDS011;20200;52.084;5.224;2023-01-23T11:07:11;44.4;;;36.31;;
33912;SDS011;20200;52.084;5.224;2023-01-23T11:08:51;44.6;;;37.21;;
33912;SDS011;20200;52.084;5.224;2023-01-23T11:10:31;46.8;;;37.81;;
33912;SDS011;20200;52.084;5.224;2023-01-23T11:14:02;43.6;;;34.1;;
33912;SDS011;20200;52.084;5.224;2023-01-23T11:15:41;39.81;;;34.6;;
33912;SDS011;20200;52.084;5.224;2023-01-23T11:17:19;41.5;;;34.1;;
33912;SDS011;20200;52.084;5.224;2023-01-23T11:19:02;39.81;;;34.21;;
33912;SDS011;20200;52.084;5.224;2023-01-23T11:20:51;40.71;;;33.9;;
33912;SDS011;20200;52.084;5.224;2023-01-23T11:24:15;39.31;;;34.4;;
33912;SDS011;20200;52.084;5.224;2023-01-23T11:25:55;42.6;;;36.0;;
33912;SDS011;20200;52.084;5.224;2023-01-23T11:27:31;43.2;;;34.81;;
33912;SDS011;20200;52.084;5.224;2023-01-23T11:29:23;39.9;;;33.6;;
33912;SDS011;20200;52.084;5.224;2023-01-23T11:31:02;39.31;;;34.5;;
33912;SDS011;20200;52.084;5.224;2023-01-23T11:34:32;39.31;;;34.31;;
33912;SDS011;20200;52.084;5.224;2023-01-23T11:36:19;41.1;;;34.9;;
33912;SDS011;20200;52.084;5.224;2023-01-23T11:38:12;39.5;;;33.8;;
33912;SDS011;20200;52.084;5.224;2023-01-23T11:39:52;38.1;;;32.6;;
33912;SDS011;20200;52.084;5.224;2023-01-23T11:41:34;37.71;;;32.4;;
33912;SDS011;20200;52.084;5.224;2023-01-23T11:44:50;38.21;;;33.6;;
33912;SDS011;20200;52.084;5.224;2023-01-23T11:46:30;38.9;;;32.9;;
33912;SDS011;20200;52.084;5.224;2023-01-23T11:48:29;37.5;;;32.6;;
33912;SDS011;20200;52.084;5.224;2023-01-23T11:51:15;35.6;;;31.4;;
33912;SDS011;20200;52.084;5.224;2023-01-23T11:53:00;35.31;;;31.4;;
33912;SDS011;20200;52.084;5.224;2023-01-23T11:54:51;34.5;;;30.1;;
33912;SDS011;20200;52.084;5.224;2023-01-23T11:56:51;33.71;;;29.8;;
33912;SDS011;20200;52.084;5.224;2023-01-23T11:58:49;32.4;;;28.9;;
33912;SDS011;20200;52.084;5.224;2023-01-23T12:00:43;31.5;;;27.0;;
33912;SDS011;20200;52.084;5.224;2023-01-23T12:02:32;30.6;;;26.5;;
33912;SDS011;20200;52.084;5.224;2023-01-23T12:04:34;32.71;;;27.6;;
33912;SDS011;20200;52.084;5.224;2023-01-23T12:06:50;29.4;;;26.1;;
33912;SDS011;20200;52.084;5.224;2023-01-23T12:08:55;32.3;;;27.5;;
33912;SDS011;20200;52.084;5.224;2023-01-23T12:12:35;31.2;;;26.7;;
33912;SDS011;20200;52.084;5.224;2023-01-23T12:14:34;29.4;;;26.1;;
33912;SDS011;20200;52.084;5.224;2023-01-23T12:16:23;28.9;;;25.2;;
33912;SDS011;20200;52.084;5.224;2023-01-23T12:18:13;28.1;;;24.6;;
33912;SDS011;20200;52.084;5.224;2023-01-23T12:20:17;27.6;;;24.5;;
33912;SDS011;20200;52.084;5.224;2023-01-23T12:22:14;28.1;;;25.0;;
33912;SDS011;20200;52.084;5.224;2023-01-23T12:24:07;27.3;;;24.4;;
33912;SDS011;20200;52.084;5.224;2023-01-23T12:25:54;28.8;;;24.8;;
33912;SDS011;20200;52.084;5.224;2023-01-23T12:27:40;29.4;;;25.8;;
33912;SDS011;20200;52.084;5.224;2023-01-23T12:31:40;28.3;;;25.2;;
33912;SDS011;20200;52.084;5.224;2023-01-23T12:33:38;31.9;;;27.1;;
33912;SDS011;20200;52.084;5.224;2023-01-23T12:35:56;32.8;;;27.0;;
33912;SDS011;20200;52.084;5.224;2023-01-23T12:39:49;28.2;;;25.1;;
33912;SDS011;20200;52.084;5.224;2023-01-23T12:41:37;30.2;;;26.6;;
33912;SDS011;20200;52.084;5.224;2023-01-23T12:43:20;32.0;;;27.3;;